sensor_id;sensor_type;location;lat;lon;timestamp;P1;durP1;ratioP1;P2;durP2;ratioP2
15528;SDS011;7866;52.280;9.500;2024-03-22T00:03:40;16.67;;;14.97;;
15528;SDS011;7866;52.280;9.500;2024-03-22T00:08:42;20.20;;;17.90;;
15528;SDS011;7866;52.280;9.500;2024-03-22T00:13:43;18.63;;;16.63;;
15528;SDS011;7866;52.280;9.500;2024-03-22T00:18:46;19.67;;;15.87;;
15528;SDS011;7866;52.280;9.500;2024-03-22T00:23:48;19.33;;;17.33;;
15528;SDS011;7866;52.280;9.500;2024-03-22T00:28:50;21.23;;;19.03;;
15528;SDS011;7866;52.280;9.500;2024-03-22T00:33:53;21.97;;;19.40;;
15528;SDS011;7866;52.280;9.500;2024-03-22T00:38:54;22.60;;;19.57;;
15528;SDS011;7866;52.280;9.500;2024-03-22T00:43:57;25.47;;;20.93;;
15528;SDS011;7866;52.280;9.500;2024-03-22T00:49:00;23.33;;;20.87;;
15528;SDS011;7866;52.280;9.500;2024-03-22T00:54:02;25.10;;;22.40;;
15528;SDS011;7866;52.280;9.500;2024-03-22T00:59:04;26.87;;;22.10;;
15528;SDS011;7866;52.280;9.500;2024-03-22T01:04:08;23.97;;;21.47;;
15528;SDS011;7866;52.280;9.500;2024-03-22T01:09:09;26.17;;;22.43;;
15528;SDS011;7866;52.280;9.500;2024-03-22T01:14:11;27.17;;;23.57;;
15528;SDS011;7866;52.280;9.500;2024-03-22T01:19:14;27.67;;;23.63;;
15528;SDS011;7866;52.280;9.500;2024-03-22T01:24:16;27.13;;;23.17;;
15528;SDS011;7866;52.280;9.500;2024-03-22T01:29:17;26.87;;;23.10;;
15528;SDS011;7866;52.280;9.500;2024-03-22T01:34:20;27.73;;;22.67;;
15528;SDS011;7866;52.280;9.500;2024-03-22T01:39:22;28.50;;;23.57;;
15528;SDS011;7866;52.280;9.500;2024-03-22T01:44:26;26.37;;;22.33;;
15528;SDS011;7866;52.280;9.500;2024-03-22T01:49:29;26.50;;;23.67;;
15528;SDS011;7866;52.280;9.500;2024-03-22T01:54:31;27.77;;;23.63;;
15528;SDS011;7866;52.280;9.500;2024-03-22T01:59:33;26.07;;;22.80;;
15528;SDS011;7866;52.280;9.500;2024-03-22T02:04:36;29.50;;;24.37;;
15528;SDS011;7866;52.280;9.500;2024-03-22T02:09:38;27.90;;;23.73;;
15528;SDS011;7866;52.280;9.500;2024-03-22T02:14:39;29.27;;;25.17;;
15528;SDS011;7866;52.280;9.500;2024-03-22T02:19:43;29.23;;;25.93;;
15528;SDS011;7866;52.280;9.500;2024-03-22T02:24:45;30.30;;;26.00;;
15528;SDS011;7866;52.280;9.500;2024-03-22T02:29:47;31.63;;;26.97;;
15528;SDS011;7866;52.280;9.500;2024-03-22T02:34:49;32.23;;;26.63;;
15528;SDS011;7866;52.280;9.500;2024-03-22T02:39:52;32.83;;;25.53;;
15528;SDS011;7866;52.280;9.500;2024-03-22T02:44:53;31.00;;;24.37;;
15528;SDS011;7866;52.280;9.500;2024-03-22T02:49:55;33.00;;;24.87;;
15528;SDS011;7866;52.280;9.500;2024-03-22T02:54:58;29.03;;;22.93;;
15528;SDS011;7866;52.280;9.500;2024-03-22T02:59:59;33.90;;;26.40;;
15528;SDS011;7866;52.280;9.500;2024-03-22T03:05:01;28.50;;;23.97;;
15528;SDS011;7866;52.280;9.500;2024-03-22T03:10:05;30.33;;;24.83;;
15528;SDS011;7866;52.280;9.500;2024-03-22T03:15:07;33.87;;;25.67;;
15528;SDS011;7866;52.280;9.500;2024-03-22T03:20:09;28.47;;;24.50;;
15528;SDS011;7866;52.280;9.500;2024-03-22T03:25:15;31.37;;;25.07;;
15528;SDS011;7866;52.280;9.500;2024-03-22T03:30:16;31.97;;;25.20;;
15528;SDS011;7866;52.280;9.500;2024-03-22T03:35:18;30.57;;;24.83;;
15528;SDS011;7866;52.280;9.500;2024-03-22T03:40:21;31.93;;;24.90;;
15528;SDS011;7866;52.280;9.500;2024-03-22T03:45:24;32.27;;;24.90;;
15528;SDS011;7866;52.280;9.500;2024-03-22T03:50:26;29.63;;;24.77;;
15528;SDS011;7866;52.280;9.500;2024-03-22T03:55:29;29.07;;;23.73;;
15528;SDS011;7866;52.280;9.500;2024-03-22T04:00:30;31.37;;;25.20;;
15528;SDS011;7866;52.280;9.500;2024-03-22T04:05:32;32.90;;;24.43;;
15528;SDS011;7866;52.280;9.500;2024-03-22T04:10:35;33.70;;;25.33;;
15528;SDS011;7866;52.280;9.500;2024-03-22T04:15:36;29.77;;;23.83;;
15528;SDS011;7866;52.280;9.500;2024-03-22T04:20:38;32.80;;;25.53;;
15528;SDS011;7866;52.280;9.500;2024-03-22T04:25:41;31.27;;;25.30;;
15528;SDS011;7866;52.280;9.500;2024-03-22T04:30:42;32.30;;;25.20;;
15528;SDS011;7866;52.280;9.500;2024-03-22T04:35:45;32.97;;;25.03;;
15528;SDS011;7866;52.280;9.500;2024-03-22T04:40:48;39.03;;;26.70;;
15528;SDS011;7866;52.280;9.500;2024-03-22T04:45:50;34.27;;;26.17;;
15528;SDS011;7866;52.280;9.500;2024-03-22T04:50:52;31.83;;;25.47;;
15528;SDS011;7866;52.280;9.500;2024-03-22T04:55:55;35.83;;;27.27;;
15528;SDS011;7866;52.280;9.500;2024-03-22T05:00:57;36.80;;;26.47;;
15528;SDS011;7866;52.280;9.500;2024-03-22T05:06:00;34.13;;;25.70;;
15528;SDS011;7866;52.280;9.500;2024-03-22T05:11:05;36.53;;;26.70;;
15528;SDS011;7866;52.280;9.500;2024-03-22T05:16:06;35.07;;;26.53;;
15528;SDS011;7866;52.280;9.500;2024-03-22T05:21:08;33.93;;;24.10;;
15528;SDS011;7866;52.280;9.500;2024-03-22T05:26:11;37.30;;;25.93;;
15528;SDS011;7866;52.280;9.500;2024-03-22T05:31:12;33.53;;;24.97;;
15528;SDS011;7866;52.280;9.500;2024-03-22T05:36:14;33.30;;;24.97;;
15528;SDS011;7866;52.280;9.500;2024-03-22T05:41:17;31.77;;;23.70;;
15528;SDS011;7866;52.280;9.500;2024-03-22T05:46:18;31.57;;;23.93;;
15528;SDS011;7866;52.280;9.500;2024-03-22T05:51:20;34.10;;;25.07;;
15528;SDS011;7866;52.280;9.500;2024-03-22T05:56:23;30.93;;;22.33;;
15528;SDS011;7866;52.280;9.500;2024-03-22T06:01:25;31.10;;;23.10;;
15528;SDS011;7866;52.280;9.500;2024-03-22T06:06:26;27.83;;;22.27;;
15528;SDS011;7866;52.280;9.500;2024-03-22T06:11:29;28.87;;;21.67;;
15528;SDS011;7866;52.280;9.500;2024-03-22T06:16:31;27.33;;;20.73;;
15528;SDS011;7866;52.280;9.500;2024-03-22T06:21:33;25.93;;;19.73;;
15528;SDS011;7866;52.280;9.500;2024-03-22T06:26:36;26.57;;;19.83;;
15528;SDS011;7866;52.280;9.500;2024-03-22T06:31:37;25.07;;;18.37;;
15528;SDS011;7866;52.280;9.500;2024-03-22T06:36:39;27.93;;;18.80;;
15528;SDS011;7866;52.280;9.500;2024-03-22T06:41:42;25.33;;;17.47;;
15528;SDS011;7866;52.280;9.500;2024-03-22T06:46:44;27.17;;;19.00;;
15528;SDS011;7866;52.280;9.500;2024-03-22T06:51:46;25.30;;;18.00;;
15528;SDS011;7866;52.280;9.500;2024-03-22T06:56:48;21.30;;;17.23;;
15528;SDS011;7866;52.280;9.500;2024-03-22T07:01:50;25.33;;;17.20;;
15528;SDS011;7866;52.280;9.500;2024-03-22T07:06:52;26.93;;;18.10;;
15528;SDS011;7866;52.280;9.500;2024-03-22T07:11:55;23.33;;;16.50;;
15528;SDS011;7866;52.280;9.500;2024-03-22T07:16:56;21.17;;;15.73;;
15528;SDS011;7866;52.280;9.500;2024-03-22T07:21:58;20.53;;;15.10;;
15528;SDS011;7866;52.280;9.500;2024-03-22T07:27:01;21.83;;;16.77;;
15528;SDS011;7866;52.280;9.500;2024-03-22T07:32:03;21.17;;;16.60;;
15528;SDS011;7866;52.280;9.500;2024-03-22T07:37:05;17.70;;;14.37;;
15528;SDS011;7866;52.280;9.500;2024-03-22T07:42:09;19.83;;;15.03;;
15528;SDS011;7866;52.280;9.500;2024-03-22T07:47:10;21.30;;;15.80;;
15528;SDS011;7866;52.280;9.500;2024-03-22T07:52:12;18.73;;;14.83;;
15528;SDS011;7866;52.280;9.500;2024-03-22T07:57:15;19.03;;;14.77;;
15528;SDS011;7866;52.280;9.500;2024-03-22T08:02:16;16.80;;;13.63;;
15528;SDS011;7866;52.280;9.500;2024-03-22T08:07:18;19.07;;;14.20;;
15528;SDS011;7866;52.280;9.500;2024-03-22T08:12:21;17.60;;;13.67;;
15528;SDS011;7866;52.280;9.500;2024-03-22T08:17:23;16.00;;;13.43;;
15528;SDS011;7866;52.280;9.500;2024-03-22T08:22:24;23.77;;;14.33;;
15528;SDS011;7866;52.280;9.500;2024-03-22T08:27:27;19.03;;;13.13;;
15528;SDS011;7866;52.280;9.500;2024-03-22T08:32:29;17.40;;;13.37;;
15528;SDS011;7866;52.280;9.500;2024-03-22T08:37:31;18.40;;;13.20;;
15528;SDS011;7866;52.280;9.500;2024-03-22T08:42:34;17.83;;;13.40;;
15528;SDS011;7866;52.280;9.500;2024-03-22T08:47:36;15.20;;;12.50;;
15528;SDS011;7866;52.280;9.500;2024-03-22T08:52:39;15.13;;;12.23;;
15528;SDS011;7866;52.280;9.500;2024-03-22T08:57:42;16.03;;;12.97;;
15528;SDS011;7866;52.280;9.500;2024-03-22T09:02:43;14.50;;;12.43;;
15528;SDS011;7866;52.280;9.500;2024-03-22T09:07:45;14.77;;;11.68;;
15528;SDS011;7866;52.280;9.500;2024-03-22T09:12:48;17.23;;;13.50;;
15528;SDS011;7866;52.280;9.500;2024-03-22T09:17:51;13.80;;;11.48;;
15528;SDS011;7866;52.280;9.500;2024-03-22T09:22:53;15.20;;;11.73;;
15528;SDS011;7866;52.280;9.500;2024-03-22T09:27:56;16.10;;;12.52;;
15528;SDS011;7866;52.280;9.500;2024-03-22T09:32:57;12.23;;;10.93;;
15528;SDS011;7866;52.280;9.500;2024-03-22T09:37:59;16.08;;;11.68;;
15528;SDS011;7866;52.280;9.500;2024-03-22T09:43:02;13.88;;;11.43;;
15528;SDS011;7866;52.280;9.500;2024-03-22T09:48:05;14.57;;;11.90;;
15528;SDS011;7866;52.280;9.500;2024-03-22T09:53:08;14.75;;;11.38;;
15528;SDS011;7866;52.280;9.500;2024-03-22T09:58:12;14.35;;;11.60;;
15528;SDS011;7866;52.280;9.500;2024-03-22T10:03:14;13.80;;;10.82;;
15528;SDS011;7866;52.280;9.500;2024-03-22T10:08:15;15.80;;;12.00;;
15528;SDS011;7866;52.280;9.500;2024-03-22T10:13:19;15.98;;;11.38;;
15528;SDS011;7866;52.280;9.500;2024-03-22T10:18:21;12.65;;;10.15;;
15528;SDS011;7866;52.280;9.500;2024-03-22T10:23:23;12.25;;;10.05;;
15528;SDS011;7866;52.280;9.500;2024-03-22T10:28:27;12.60;;;11.30;;
15528;SDS011;7866;52.280;9.500;2024-03-22T10:33:29;11.60;;;10.40;;
15528;SDS011;7866;52.280;9.500;2024-03-22T10:38:31;14.32;;;11.07;;
15528;SDS011;7866;52.280;9.500;2024-03-22T10:43:35;14.20;;;11.23;;
15528;SDS011;7866;52.280;9.500;2024-03-22T10:48:37;14.52;;;11.10;;
15528;SDS011;7866;52.280;9.500;2024-03-22T10:53:40;13.63;;;10.48;;
15528;SDS011;7866;52.280;9.500;2024-03-22T10:58:44;12.18;;;10.30;;
15528;SDS011;7866;52.280;9.500;2024-03-22T11:03:47;11.52;;;10.27;;
15528;SDS011;7866;52.280;9.500;2024-03-22T11:08:49;14.02;;;10.57;;
15528;SDS011;7866;52.280;9.500;2024-03-22T11:13:53;14.55;;;10.45;;
15528;SDS011;7866;52.280;9.500;2024-03-22T11:18:56;12.75;;;9.50;;
15528;SDS011;7866;52.280;9.500;2024-03-22T11:23:57;14.07;;;10.80;;
15528;SDS011;7866;52.280;9.500;2024-03-22T11:29:01;12.25;;;10.60;;
15528;SDS011;7866;52.280;9.500;2024-03-22T11:34:02;14.70;;;11.00;;
15528;SDS011;7866;52.280;9.500;2024-03-22T11:39:04;15.32;;;10.82;;
15528;SDS011;7866;52.280;9.500;2024-03-22T11:44:07;12.18;;;9.73;;
15528;SDS011;7866;52.280;9.500;2024-03-22T11:49:09;13.15;;;10.95;;
15528;SDS011;7866;52.280;9.500;2024-03-22T11:54:11;14.20;;;10.85;;
15528;SDS011;7866;52.280;9.500;2024-03-22T11:59:14;13.50;;;10.18;;
15528;SDS011;7866;52.280;9.500;2024-03-22T12:04:16;13.00;;;10.85;;
15528;SDS011;7866;52.280;9.500;2024-03-22T12:09:17;12.93;;;10.05;;
15528;SDS011;7866;52.280;9.500;2024-03-22T12:14:20;12.35;;;10.98;;
15528;SDS011;7866;52.280;9.500;2024-03-22T12:19:22;16.27;;;11.32;;
15528;SDS011;7866;52.280;9.500;2024-03-22T12:24:23;13.00;;;11.57;;
15528;SDS011;7866;52.280;9.500;2024-03-22T12:29:26;16.00;;;12.13;;
15528;SDS011;7866;52.280;9.500;2024-03-22T12:34:28;14.15;;;12.13;;
15528;SDS011;7866;52.280;9.500;2024-03-22T12:39:30;14.85;;;11.98;;
15528;SDS011;7866;52.280;9.500;2024-03-22T12:44:34;16.15;;;12.45;;
15528;SDS011;7866;52.280;9.500;2024-03-22T12:49:35;14.18;;;12.32;;
15528;SDS011;7866;52.280;9.500;2024-03-22T12:54:37;15.45;;;12.38;;
15528;SDS011;7866;52.280;9.500;2024-03-22T12:59:40;14.68;;;12.38;;
15528;SDS011;7866;52.280;9.500;2024-03-22T13:04:41;14.07;;;12.32;;
15528;SDS011;7866;52.280;9.500;2024-03-22T13:09:43;16.75;;;12.32;;
15528;SDS011;7866;52.280;9.500;2024-03-22T13:14:46;17.33;;;13.15;;
15528;SDS011;7866;52.280;9.500;2024-03-22T13:19:48;16.77;;;13.20;;
15528;SDS011;7866;52.280;9.500;2024-03-22T13:24:50;14.65;;;12.88;;
15528;SDS011;7866;52.280;9.500;2024-03-22T13:29:53;14.50;;;11.80;;
15528;SDS011;7866;52.280;9.500;2024-03-22T13:34:54;15.13;;;12.70;;
15528;SDS011;7866;52.280;9.500;2024-03-22T13:39:56;15.90;;;12.87;;
15528;SDS011;7866;52.280;9.500;2024-03-22T13:44:59;16.08;;;13.52;;
15528;SDS011;7866;52.280;9.500;2024-03-22T13:50:01;17.48;;;13.20;;
15528;SDS011;7866;52.280;9.500;2024-03-22T13:55:03;15.80;;;13.05;;
15528;SDS011;7866;52.280;9.500;2024-03-22T14:00:07;14.27;;;12.77;;
15528;SDS011;7866;52.280;9.500;2024-03-22T14:05:14;15.93;;;12.40;;
15528;SDS011;7866;52.280;9.500;2024-03-22T14:10:16;14.07;;;12.38;;
15528;SDS011;7866;52.280;9.500;2024-03-22T14:15:19;14.52;;;12.68;;
15528;SDS011;7866;52.280;9.500;2024-03-22T14:20:21;14.00;;;11.77;;
15528;SDS011;7866;52.280;9.500;2024-03-22T14:25:22;12.50;;;11.13;;
15528;SDS011;7866;52.280;9.500;2024-03-22T14:30:25;11.88;;;10.32;;
15528;SDS011;7866;52.280;9.500;2024-03-22T14:35:27;12.03;;;10.70;;
15528;SDS011;7866;52.280;9.500;2024-03-22T14:40:28;12.53;;;10.47;;
15528;SDS011;7866;52.280;9.500;2024-03-22T14:45:32;11.70;;;10.50;;
15528;SDS011;7866;52.280;9.500;2024-03-22T14:50:34;10.87;;;9.87;;
15528;SDS011;7866;52.280;9.500;2024-03-22T14:55:38;11.40;;;10.10;;
15528;SDS011;7866;52.280;9.500;2024-03-22T15:00:41;10.90;;;9.80;;
15528;SDS011;7866;52.280;9.500;2024-03-22T15:05:42;8.50;;;7.70;;
15528;SDS011;7866;52.280;9.500;2024-03-22T15:10:44;8.47;;;7.57;;
15528;SDS011;7866;52.280;9.500;2024-03-22T15:15:53;8.87;;;8.00;;
15528;SDS011;7866;52.280;9.500;2024-03-22T15:20:55;9.80;;;8.73;;
15528;SDS011;7866;52.280;9.500;2024-03-22T15:25:56;9.50;;;8.47;;
15528;SDS011;7866;52.280;9.500;2024-03-22T15:30:59;9.87;;;8.87;;
15528;SDS011;7866;52.280;9.500;2024-03-22T15:36:01;9.53;;;8.63;;
15528;SDS011;7866;52.280;9.500;2024-03-22T15:41:03;8.23;;;7.43;;
15528;SDS011;7866;52.280;9.500;2024-03-22T15:46:06;8.00;;;7.20;;
15528;SDS011;7866;52.280;9.500;2024-03-22T15:51:07;8.13;;;7.33;;
15528;SDS011;7866;52.280;9.500;2024-03-22T15:56:09;8.40;;;7.67;;
15528;SDS011;7866;52.280;9.500;2024-03-22T16:01:12;9.03;;;8.13;;
15528;SDS011;7866;52.280;9.500;2024-03-22T16:06:14;8.60;;;7.70;;
15528;SDS011;7866;52.280;9.500;2024-03-22T16:11:15;8.27;;;7.47;;
15528;SDS011;7866;52.280;9.500;2024-03-22T16:16:18;7.77;;;7.07;;
15528;SDS011;7866;52.280;9.500;2024-03-22T16:21:21;7.53;;;6.83;;
15528;SDS011;7866;52.280;9.500;2024-03-22T16:26:23;8.00;;;7.20;;
15528;SDS011;7866;52.280;9.500;2024-03-22T16:31:26;7.13;;;6.43;;
15528;SDS011;7866;52.280;9.500;2024-03-22T16:36:27;7.40;;;6.70;;
15528;SDS011;7866;52.280;9.500;2024-03-22T16:41:29;9.47;;;8.50;;
15528;SDS011;7866;52.280;9.500;2024-03-22T16:46:32;8.97;;;8.10;;
15528;SDS011;7866;52.280;9.500;2024-03-22T16:51:33;8.63;;;7.83;;
15528;SDS011;7866;52.280;9.500;2024-03-22T16:56:35;9.00;;;8.10;;
15528;SDS011;7866;52.280;9.500;2024-03-22T17:01:38;9.17;;;8.27;;
15528;SDS011;7866;52.280;9.500;2024-03-22T17:06:40;7.90;;;7.17;;
15528;SDS011;7866;52.280;9.500;2024-03-22T17:11:41;9.40;;;8.50;;
15528;SDS011;7866;52.280;9.500;2024-03-22T17:16:44;9.87;;;8.97;;
15528;SDS011;7866;52.280;9.500;2024-03-22T17:21:46;10.83;;;9.67;;
15528;SDS011;7866;52.280;9.500;2024-03-22T17:26:48;8.63;;;7.73;;
15528;SDS011;7866;52.280;9.500;2024-03-22T17:31:51;8.97;;;8.07;;
15528;SDS011;7866;52.280;9.500;2024-03-22T17:36:53;8.70;;;7.87;;
15528;SDS011;7866;52.280;9.500;2024-03-22T17:41:54;8.70;;;7.90;;
15528;SDS011;7866;52.280;9.500;2024-03-22T17:46:57;8.00;;;7.30;;
15528;SDS011;7866;52.280;9.500;2024-03-22T17:51:59;8.80;;;7.90;;
15528;SDS011;7866;52.280;9.500;2024-03-22T17:57:00;7.93;;;7.23;;
15528;SDS011;7866;52.280;9.500;2024-03-22T18:02:04;8.70;;;7.90;;
15528;SDS011;7866;52.280;9.500;2024-03-22T18:07:06;7.60;;;6.90;;
15528;SDS011;7866;52.280;9.500;2024-03-22T18:12:07;7.03;;;6.43;;
15528;SDS011;7866;52.280;9.500;2024-03-22T18:17:10;6.37;;;5.77;;
15528;SDS011;7866;52.280;9.500;2024-03-22T18:22:12;6.33;;;5.73;;
15528;SDS011;7866;52.280;9.500;2024-03-22T18:27:14;5.10;;;4.60;;
15528;SDS011;7866;52.280;9.500;2024-03-22T18:32:17;3.17;;;2.87;;
15528;SDS011;7866;52.280;9.500;2024-03-22T18:37:18;2.43;;;2.20;;
15528;SDS011;7866;52.280;9.500;2024-03-22T18:42:20;2.37;;;2.07;;
15528;SDS011;7866;52.280;9.500;2024-03-22T18:47:23;3.53;;;2.20;;
15528;SDS011;7866;52.280;9.500;2024-03-22T18:52:24;2.73;;;2.10;;
15528;SDS011;7866;52.280;9.500;2024-03-22T18:57:26;3.47;;;2.20;;
15528;SDS011;7866;52.280;9.500;2024-03-22T19:02:29;3.97;;;2.30;;
15528;SDS011;7866;52.280;9.500;2024-03-22T19:07:31;4.00;;;2.10;;
15528;SDS011;7866;52.280;9.500;2024-03-22T19:12:32;6.43;;;2.90;;
15528;SDS011;7866;52.280;9.500;2024-03-22T19:17:35;5.23;;;2.40;;
15528;SDS011;7866;52.280;9.500;2024-03-22T19:22:37;5.60;;;2.60;;
15528;SDS011;7866;52.280;9.500;2024-03-22T19:27:39;5.63;;;3.10;;
15528;SDS011;7866;52.280;9.500;2024-03-22T19:32:41;10.87;;;3.63;;
15528;SDS011;7866;52.280;9.500;2024-03-22T19:37:43;10.43;;;6.10;;
15528;SDS011;7866;52.280;9.500;2024-03-22T19:42:45;5.30;;;2.97;;
15528;SDS011;7866;52.280;9.500;2024-03-22T19:47:48;7.27;;;3.40;;
15528;SDS011;7866;52.280;9.500;2024-03-22T19:52:50;6.30;;;2.87;;
15528;SDS011;7866;52.280;9.500;2024-03-22T19:57:52;6.57;;;3.03;;
15528;SDS011;7866;52.280;9.500;2024-03-22T20:02:55;4.47;;;2.30;;
15528;SDS011;7866;52.280;9.500;2024-03-22T20:07:56;8.10;;;4.80;;
15528;SDS011;7866;52.280;9.500;2024-03-22T20:12:58;5.90;;;3.17;;
15528;SDS011;7866;52.280;9.500;2024-03-22T20:18:01;3.73;;;3.03;;
15528;SDS011;7866;52.280;9.500;2024-03-22T20:23:02;5.40;;;2.97;;
15528;SDS011;7866;52.280;9.500;2024-03-22T20:28:06;9.20;;;3.30;;
15528;SDS011;7866;52.280;9.500;2024-03-22T20:33:09;5.63;;;3.20;;
15528;SDS011;7866;52.280;9.500;2024-03-22T20:38:11;5.60;;;3.03;;
